createdAt,value
2023-10-23T00:01:09.278Z,1.17
2023-10-23T00:04:12.721Z,0.90
2023-10-23T00:07:15.935Z,0.70
2023-10-23T00:10:19.013Z,1.13
2023-10-23T00:13:24.752Z,1.30
2023-10-23T00:16:28.192Z,0.93
2023-10-23T00:19:31.924Z,0.90
2023-10-23T00:22:35.766Z,1.15
2023-10-23T00:25:38.854Z,0.77
2023-10-23T00:28:43.742Z,1.20
2023-10-23T00:31:47.108Z,1.08
2023-10-23T00:34:50.353Z,0.83
2023-10-23T00:37:53.549Z,1.20
2023-10-23T00:40:56.975Z,0.90
2023-10-23T00:44:02.345Z,1.20
2023-10-23T00:47:06.900Z,0.85
2023-10-23T00:50:10.604Z,1.20
2023-10-23T00:53:14.109Z,1.27
2023-10-23T00:56:17.414Z,0.80
2023-10-23T00:59:22.095Z,0.83
2023-10-23T01:02:25.332Z,1.30
2023-10-23T01:05:35.496Z,1.07
2023-10-23T01:08:39.510Z,0.98
2023-10-23T01:11:42.704Z,0.57
2023-10-23T01:14:47.109Z,1.10
2023-10-23T01:17:51.153Z,0.70
2023-10-23T01:23:59.870Z,1.10
2023-10-23T01:27:04.834Z,0.88
2023-10-23T01:30:09.579Z,0.73
2023-10-23T01:33:12.789Z,1.00
2023-10-23T01:36:16.092Z,0.93
2023-10-23T01:39:19.304Z,1.00
2023-10-23T01:42:23.827Z,1.23
2023-10-23T01:45:27.603Z,0.95
2023-10-23T01:48:31.051Z,0.90
2023-10-23T01:51:34.318Z,0.70
2023-10-23T01:54:38.628Z,1.07
2023-10-23T01:57:43.300Z,0.80
2023-10-23T02:00:46.624Z,0.98
2023-10-23T02:03:50.192Z,0.93
2023-10-23T02:06:53.468Z,1.10
2023-10-23T02:09:57.809Z,0.82
2023-10-23T02:13:02.684Z,0.90
2023-10-23T02:16:06.803Z,1.00
2023-10-23T02:19:11.065Z,1.15
2023-10-23T02:25:17.793Z,0.70
2023-10-23T02:28:22.596Z,0.90
2023-10-23T02:31:26.342Z,0.82
2023-10-23T02:34:29.581Z,1.20
2023-10-23T02:37:32.800Z,1.38
2023-10-23T02:40:36.326Z,1.08
2023-10-23T02:43:40.805Z,1.10
2023-10-23T02:46:44.392Z,0.80
2023-10-23T02:49:47.840Z,0.90
2023-10-23T02:52:51.204Z,0.80
2023-10-23T02:55:54.378Z,0.70
2023-10-23T02:58:59.045Z,1.17
2023-10-23T03:02:02.561Z,1.05
2023-10-23T03:05:06.211Z,1.05
2023-10-23T03:08:09.574Z,0.88
2023-10-23T03:11:12.900Z,1.35
2023-10-23T03:14:17.444Z,1.03
2023-10-23T03:17:20.609Z,1.30
2023-10-23T03:20:24.027Z,1.40
2023-10-23T03:23:27.266Z,1.60
2023-10-23T03:26:30.580Z,0.80
2023-10-23T03:29:35.082Z,1.10
2023-10-23T03:32:38.319Z,1.35
2023-10-23T03:35:44.596Z,1.07
2023-10-23T03:38:47.773Z,1.00
2023-10-23T03:41:51.286Z,1.08
2023-10-23T03:44:55.959Z,1.00
2023-10-23T03:47:59.340Z,1.00
2023-10-23T03:51:02.772Z,0.80
2023-10-23T03:54:06.292Z,1.37
2023-10-23T03:57:09.588Z,1.15
2023-10-23T04:00:15.021Z,0.90
2023-10-23T04:03:18.260Z,0.80
2023-10-23T04:06:21.804Z,1.17
2023-10-23T04:09:25.054Z,1.02
2023-10-23T04:12:28.316Z,1.13
2023-10-23T04:15:34.382Z,1.30
2023-10-23T04:18:37.817Z,1.13
2023-10-23T04:21:41.549Z,0.97
2023-10-23T04:24:44.833Z,1.55
2023-10-23T04:27:48.086Z,1.30
2023-10-23T04:30:52.957Z,1.05
2023-10-23T04:33:56.446Z,1.13
2023-10-23T04:36:59.665Z,1.40
2023-10-23T04:40:03.087Z,1.77
2023-10-23T04:43:06.265Z,1.20
2023-10-23T04:46:10.867Z,1.48
2023-10-23T04:49:14.550Z,1.77
2023-10-23T04:52:18.286Z,1.70
2023-10-23T04:55:21.561Z,1.48
2023-10-23T04:58:25.044Z,1.60
2023-10-23T05:01:29.866Z,1.13
2023-10-23T05:04:33.188Z,1.30
2023-10-23T05:07:36.574Z,1.90
2023-10-23T05:10:40.324Z,1.20
2023-10-23T05:13:43.464Z,1.53
2023-10-23T05:16:48.473Z,1.08
2023-10-23T05:19:51.691Z,2.45
2023-10-23T05:22:55.192Z,1.90
2023-10-23T05:25:58.867Z,1.60
2023-10-23T05:29:01.992Z,1.50
2023-10-23T05:32:08.120Z,1.75
2023-10-23T05:35:15.842Z,1.88
2023-10-23T05:38:19.378Z,1.70
2023-10-23T05:41:23.072Z,1.50
2023-10-23T05:44:28.964Z,1.65
2023-10-23T05:47:33.876Z,1.73
2023-10-23T05:50:39.570Z,1.73
2023-10-23T05:54:12.064Z,1.27
2023-10-23T05:57:15.181Z,1.73
2023-10-23T06:00:19.433Z,2.00
2023-10-23T06:06:25.865Z,1.40
2023-10-23T06:09:30.536Z,1.87
2023-10-23T06:12:34.023Z,1.80
2023-10-23T06:15:37.396Z,1.60
2023-10-23T06:18:40.869Z,1.87
2023-10-23T06:21:44.451Z,1.57
2023-10-23T06:24:49.282Z,1.70
2023-10-23T06:27:52.756Z,1.50
2023-10-23T06:30:56.110Z,1.45
2023-10-23T06:33:59.607Z,1.40
2023-10-23T06:37:02.835Z,1.50
2023-10-23T06:40:08.860Z,1.45
2023-10-23T06:43:12.701Z,1.48
2023-10-23T06:46:15.969Z,1.23
2023-10-23T06:49:19.265Z,1.60
2023-10-23T06:52:22.444Z,1.40
2023-10-23T06:55:35.251Z,1.73
2023-10-23T06:58:38.269Z,1.60
2023-10-23T07:01:45.064Z,1.23
2023-10-23T07:04:49.048Z,1.65
2023-10-23T07:07:52.456Z,1.70
2023-10-23T07:14:02.773Z,1.52
2023-10-23T07:17:06.810Z,1.38
2023-10-23T07:20:10.310Z,1.23
2023-10-23T07:23:13.564Z,1.52
2023-10-23T07:26:18.189Z,1.63
2023-10-23T07:29:21.311Z,1.30
2023-10-23T07:32:24.728Z,1.20
2023-10-23T07:35:43.414Z,1.30
2023-10-23T07:38:56.953Z,1.38
2023-10-23T07:42:01.435Z,1.10
2023-10-23T07:45:06.143Z,1.58
2023-10-23T07:48:09.307Z,1.45
2023-10-23T07:51:12.481Z,1.13
2023-10-23T07:54:16.819Z,1.27
2023-10-23T07:57:22.786Z,1.27
2023-10-23T08:00:34.830Z,1.27
2023-10-23T08:03:38.961Z,1.10
2023-10-23T08:09:45.811Z,1.40
2023-10-23T08:12:50.375Z,1.40
2023-10-23T08:15:55.415Z,1.60
2023-10-23T08:19:01.055Z,1.13
2023-10-23T08:22:04.587Z,1.17
2023-10-23T08:25:09.181Z,1.07
2023-10-23T08:28:14.041Z,0.90
2023-10-23T08:31:34.345Z,0.88
2023-10-23T08:34:41.037Z,1.15
2023-10-23T08:37:44.541Z,1.30
2023-10-23T08:40:47.797Z,1.30
2023-10-23T08:43:52.808Z,1.13
2023-10-23T08:46:56.207Z,1.02
2023-10-23T08:50:01.007Z,0.90
2023-10-23T08:53:34.027Z,0.80
2023-10-23T08:56:39.142Z,0.73
2023-10-23T08:59:43.287Z,1.08
2023-10-23T09:05:59.409Z,0.80
2023-10-23T09:09:04.799Z,0.85
2023-10-23T09:12:09.013Z,1.02
2023-10-23T09:15:51.708Z,1.00
2023-10-23T09:18:56.277Z,1.50
2023-10-23T09:21:59.839Z,1.08
2023-10-23T09:25:03.057Z,0.70
2023-10-23T09:28:12.256Z,1.13
2023-10-23T09:31:17.075Z,0.95
2023-10-23T09:34:20.354Z,0.55
2023-10-23T09:37:26.408Z,0.98
2023-10-23T09:40:35.826Z,0.75
2023-10-23T09:43:46.427Z,0.98
2023-10-23T09:46:53.062Z,0.70
2023-10-23T09:49:56.833Z,0.60
2023-10-23T09:53:00.168Z,0.50
2023-10-23T09:56:08.501Z,1.07
2023-10-23T09:59:13.720Z,0.68
2023-10-23T10:02:22.718Z,0.90
2023-10-23T10:05:35.502Z,0.80
2023-10-23T10:08:42.515Z,0.50
2023-10-23T10:11:46.069Z,0.73
2023-10-23T10:14:49.974Z,0.70
2023-10-23T10:18:17.832Z,0.80
2023-10-23T10:21:24.786Z,0.50
2023-10-23T10:24:28.784Z,0.70
2023-10-23T10:27:32.711Z,0.50
2023-10-23T10:30:42.134Z,0.55
2023-10-23T10:34:27.601Z,0.90
2023-10-23T10:37:25.246Z,0.77
2023-10-23T10:40:37.309Z,0.57
2023-10-23T10:43:40.735Z,0.95
2023-10-23T10:46:45.190Z,0.50
2023-10-23T10:49:53.125Z,0.60
2023-10-23T10:53:02.508Z,0.80
2023-10-23T10:56:09.321Z,0.80
2023-10-23T10:59:12.739Z,0.80
2023-10-23T11:02:16.290Z,0.97
2023-10-23T11:05:20.816Z,1.10
2023-10-23T11:08:48.258Z,0.40
2023-10-23T11:11:51.344Z,0.70
2023-10-23T11:14:54.542Z,0.50
2023-10-23T11:17:58.339Z,0.60
2023-10-23T11:21:02.504Z,0.65
2023-10-23T11:27:11.788Z,0.47
2023-10-23T11:30:15.168Z,0.80
2023-10-23T11:33:21.004Z,1.30
2023-10-23T11:36:24.347Z,1.02
2023-10-23T11:39:29.992Z,0.93
2023-10-23T11:42:33.085Z,0.68
2023-10-23T11:45:39.851Z,0.80
2023-10-23T11:48:43.056Z,0.73
2023-10-23T11:51:46.717Z,0.88
2023-10-23T11:54:51.402Z,0.82
2023-10-23T11:57:56.005Z,0.50
2023-10-23T12:00:59.387Z,0.55
2023-10-23T12:04:02.687Z,0.77
2023-10-23T12:07:07.084Z,0.60
2023-10-23T12:16:18.888Z,0.90
2023-10-23T12:19:22.393Z,0.68
2023-10-23T12:22:25.853Z,0.63
2023-10-23T12:25:37.805Z,0.90
2023-10-23T12:28:41.778Z,0.63
2023-10-23T12:32:00.362Z,0.70
2023-10-23T12:35:06.113Z,1.08
2023-10-23T12:38:09.926Z,0.95
2023-10-23T12:41:14.552Z,0.80
2023-10-23T12:44:17.675Z,0.63
2023-10-23T12:47:21.406Z,0.80
2023-10-23T12:50:24.670Z,0.60
2023-10-23T12:53:28.056Z,0.75
2023-10-23T12:56:33.944Z,0.80
2023-10-23T12:59:38.659Z,0.50
2023-10-23T13:02:43.219Z,0.50
2023-10-23T13:05:46.513Z,0.73
2023-10-23T13:08:49.746Z,0.90
2023-10-23T13:11:54.523Z,0.57
2023-10-23T13:14:58.343Z,0.75
2023-10-23T13:18:03.646Z,0.30
2023-10-23T13:21:30.422Z,0.60
2023-10-23T13:24:30.053Z,0.70
2023-10-23T13:27:35.897Z,1.00
2023-10-23T13:30:40.024Z,0.73
2023-10-23T13:33:43.884Z,0.80
2023-10-23T13:36:47.043Z,0.30
2023-10-23T13:39:50.295Z,0.80
2023-10-23T13:42:55.172Z,0.60
2023-10-23T13:45:58.611Z,0.68
2023-10-23T13:49:02.354Z,0.50
2023-10-23T13:52:06.062Z,0.63
2023-10-23T13:55:11.976Z,0.70
2023-10-23T13:58:16.811Z,0.50
2023-10-23T14:01:44.118Z,0.50
2023-10-23T14:04:47.573Z,0.57
2023-10-23T14:07:50.767Z,0.60
2023-10-23T14:11:30.034Z,0.80
2023-10-23T14:14:17.539Z,0.80
2023-10-23T14:17:22.335Z,1.05
2023-10-23T14:20:28.109Z,0.40
2023-10-23T14:23:31.963Z,0.57
2023-10-23T14:26:35.197Z,0.30
2023-10-23T14:29:39.338Z,0.60
2023-10-23T14:32:44.588Z,0.80
2023-10-23T14:35:48.038Z,0.60
2023-10-23T14:38:51.962Z,1.07
2023-10-23T14:41:55.632Z,0.63
2023-10-23T14:45:00.987Z,0.52
2023-10-23T14:48:06.301Z,0.63
2023-10-23T14:51:09.520Z,1.02
2023-10-23T14:54:12.719Z,1.20
2023-10-23T14:57:16.046Z,2.60
2023-10-23T15:00:20.732Z,3.57
2023-10-23T15:03:26.677Z,3.78
2023-10-23T15:06:31.067Z,1.80
2023-10-23T15:09:34.551Z,1.10
2023-10-23T15:12:37.708Z,0.70
2023-10-23T15:15:40.815Z,1.10
2023-10-23T15:18:45.439Z,0.93
2023-10-23T15:21:48.771Z,1.05
2023-10-23T15:24:52.784Z,1.20
2023-10-23T15:27:56.206Z,0.80
2023-10-23T15:31:01.870Z,0.80
2023-10-23T15:34:06.563Z,0.80
2023-10-23T15:37:10.584Z,1.10
2023-10-23T15:40:14.718Z,1.15
2023-10-23T15:46:22.870Z,0.98
2023-10-23T15:49:27.824Z,0.95
2023-10-23T15:52:31.094Z,1.33
2023-10-23T15:55:34.465Z,1.13
2023-10-23T15:58:38.794Z,1.17
2023-10-23T16:01:42.168Z,0.90
2023-10-23T16:04:49.103Z,0.73
2023-10-23T16:07:52.425Z,1.17
2023-10-23T16:10:56.565Z,0.57
2023-10-23T16:17:09.204Z,0.70
2023-10-23T16:20:14.776Z,0.90
2023-10-23T16:23:18.364Z,1.20
2023-10-23T16:26:21.802Z,0.73
2023-10-23T16:29:25.432Z,0.90
2023-10-23T16:32:28.639Z,1.02
2023-10-23T16:35:35.584Z,0.50
2023-10-23T16:38:38.998Z,0.95
2023-10-23T16:41:44.614Z,1.25
2023-10-23T16:44:55.934Z,1.33
2023-10-23T16:48:00.384Z,0.77
2023-10-23T16:51:06.302Z,1.05
2023-10-23T16:54:09.728Z,1.40
2023-10-23T16:57:13.852Z,0.80
2023-10-23T17:00:17.951Z,1.20
2023-10-23T17:03:21.726Z,1.17
2023-10-23T17:06:26.490Z,1.38
2023-10-23T17:09:30.303Z,1.08
2023-10-23T17:12:33.999Z,1.33
2023-10-23T17:15:43.149Z,0.93
2023-10-23T17:18:46.685Z,0.98
2023-10-23T17:21:51.189Z,1.07
2023-10-23T17:24:54.465Z,1.63
2023-10-23T17:27:57.822Z,1.80
2023-10-23T17:31:01.649Z,1.90
2023-10-23T17:34:05.228Z,2.63
2023-10-23T17:37:09.820Z,2.17
2023-10-23T17:40:16.216Z,2.95
2023-10-23T17:43:20.509Z,2.10
2023-10-23T17:46:23.902Z,2.97
2023-10-23T17:49:27.304Z,2.85
2023-10-23T17:52:32.110Z,2.70
2023-10-23T17:55:40.704Z,2.45
2023-10-23T17:58:44.075Z,3.67
2023-10-23T18:01:47.974Z,3.47
2023-10-23T18:04:51.322Z,4.18
2023-10-23T18:07:56.750Z,4.20
2023-10-23T18:11:01.422Z,3.90
2023-10-23T18:14:05.688Z,2.30
2023-10-23T18:17:08.812Z,2.03
2023-10-23T18:20:13.583Z,1.97
2023-10-23T18:23:19.292Z,1.55
2023-10-23T18:26:23.392Z,1.65
2023-10-23T18:29:32.973Z,1.55
2023-10-23T18:32:55.170Z,1.75
2023-10-23T18:39:08.088Z,1.85
2023-10-23T18:42:11.276Z,1.77
2023-10-23T18:45:14.811Z,1.35
2023-10-23T18:48:18.074Z,1.73
2023-10-23T18:51:21.876Z,1.60
2023-10-23T18:54:26.712Z,1.92
2023-10-23T18:57:29.907Z,1.88
2023-10-23T19:00:33.285Z,2.28
2023-10-23T19:03:36.824Z,1.92
2023-10-23T19:06:41.068Z,1.77
2023-10-23T19:09:45.848Z,2.03
2023-10-23T19:12:49.512Z,1.27
2023-10-23T19:15:57.696Z,1.48
2023-10-23T19:19:01.078Z,1.73
2023-10-23T19:22:04.881Z,1.90
2023-10-23T19:25:10.857Z,1.67
2023-10-23T19:28:14.417Z,2.25
2023-10-23T19:31:21.242Z,2.03
2023-10-23T19:34:25.111Z,2.10
2023-10-23T19:37:28.844Z,2.03
2023-10-23T19:40:34.271Z,2.53
2023-10-23T19:43:44.674Z,2.35
2023-10-23T19:46:49.096Z,2.97
2023-10-23T19:49:52.733Z,3.00
2023-10-23T19:52:56.613Z,3.15
2023-10-23T19:56:30.179Z,3.72
2023-10-23T19:59:37.939Z,3.33
2023-10-23T20:02:41.291Z,2.92
2023-10-23T20:05:44.581Z,2.40
2023-10-23T20:08:48.336Z,2.90
2023-10-23T20:11:53.647Z,1.88
2023-10-23T20:14:57.087Z,2.20
2023-10-23T20:18:00.696Z,2.47
2023-10-23T20:21:05.365Z,2.03
2023-10-23T20:24:09.592Z,2.47
2023-10-23T20:27:17.440Z,2.25
2023-10-23T20:30:20.977Z,2.33
2023-10-23T20:33:24.802Z,1.98
2023-10-23T20:36:28.593Z,1.73
2023-10-23T20:39:31.782Z,2.22
2023-10-23T20:42:37.617Z,1.80
2023-10-23T20:45:40.813Z,1.88
2023-10-23T20:48:43.946Z,1.27
2023-10-23T20:51:47.305Z,2.33
2023-10-23T20:54:50.718Z,2.20
2023-10-23T20:57:55.091Z,2.13
2023-10-23T21:00:58.521Z,1.80
2023-10-23T21:04:01.855Z,1.80
2023-10-23T21:07:06.702Z,1.77
2023-10-23T21:10:10.592Z,1.85
2023-10-23T21:13:15.687Z,2.47
2023-10-23T21:16:19.058Z,1.95
2023-10-23T21:19:22.609Z,1.77
2023-10-23T21:22:26.242Z,1.60
2023-10-23T21:25:36.749Z,1.95
2023-10-23T21:28:43.471Z,1.30
2023-10-23T21:31:47.370Z,1.30
2023-10-23T21:34:50.813Z,1.23
2023-10-23T21:37:54.004Z,1.30
2023-10-23T21:40:57.232Z,1.50
2023-10-23T21:44:01.755Z,1.88
2023-10-23T21:47:05.419Z,1.20
2023-10-23T21:50:09.456Z,1.58
2023-10-23T21:53:14.326Z,1.23
2023-10-23T21:57:15.333Z,1.65
2023-10-23T21:59:46.295Z,1.30
2023-10-23T22:02:49.983Z,1.33
2023-10-23T22:05:53.805Z,1.88
2023-10-23T22:08:57.450Z,1.25
2023-10-23T22:12:01.032Z,1.38
2023-10-23T22:15:06.577Z,1.65
2023-10-23T22:18:09.805Z,1.42
2023-10-23T22:21:13.290Z,1.48
2023-10-23T22:24:16.401Z,1.20
2023-10-23T22:27:19.746Z,1.50
2023-10-23T22:30:24.311Z,1.07
2023-10-23T22:33:28.055Z,1.40
2023-10-23T22:36:31.499Z,1.60
2023-10-23T22:39:35.161Z,1.33
2023-10-23T22:42:38.768Z,1.58
2023-10-23T22:45:51.477Z,1.13
2023-10-23T22:49:05.934Z,1.65
2023-10-23T22:52:10.247Z,1.52
2023-10-23T22:55:14.376Z,1.45
2023-10-23T22:58:20.311Z,1.73
2023-10-23T23:01:25.794Z,1.85
2023-10-23T23:04:30.085Z,1.42
2023-10-23T23:10:41.091Z,1.65
2023-10-23T23:16:53.010Z,1.15
2023-10-23T23:19:59.078Z,2.08
2023-10-23T23:23:02.185Z,1.58
2023-10-23T23:26:05.914Z,1.60
2023-10-23T23:29:09.074Z,1.30
2023-10-23T23:32:14.333Z,1.70
2023-10-23T23:35:17.568Z,1.50
2023-10-23T23:38:20.621Z,1.60
2023-10-23T23:41:23.723Z,1.58
2023-10-23T23:44:26.938Z,2.00
2023-10-23T23:47:31.320Z,1.77
2023-10-23T23:50:39.565Z,1.90
2023-10-23T23:53:42.758Z,1.95
2023-10-23T23:56:46.285Z,1.73
2023-10-23T23:59:49.360Z,1.83
